Time;durP1;ratioP1;P1;durP2;ratioP2;P2;SDS_P1;SDS_P2;PMS_P1;PMS_P2;Temp;Humidity;BMP_temperature;BMP_pressure;BME280_temperature;BME280_humidity;BME280_pressure;Samples;Min_cycle;Max_cycle;Signal;HPM_P1;HPM_P2
2021/12/20 00:00:48;;;;;;;15.88;9.50;;;;;;;5.96;69.80;100769.31;4814370;29;20045;-89
2021/12/20 00:03:14;;;;;;;13.68;8.65;;;;;;;5.92;69.74;100742.22;4809899;29;20068;-88
2021/12/20 00:05:40;;;;;;;13.68;9.00;;;;;;;6.23;69.22;100770.41;4835755;29;20064;-88
2021/12/20 00:08:07;;;;;;;15.70;9.88;;;;;;;5.76;69.69;100725.47;4832946;29;20038;-87
2021/12/20 00:10:33;;;;;;;14.48;9.50;;;;;;;5.70;69.25;100693.16;4806757;29;20042;-87
2021/12/20 00:12:59;;;;;;;13.73;9.43;;;;;;;5.53;69.27;100659.97;4808604;29;20133;-86
2021/12/20 00:15:25;;;;;;;14.98;9.73;;;;;;;6.12;69.46;100768.75;4852705;29;20452;-85
2021/12/20 00:17:51;;;;;;;15.30;9.50;;;;;;;5.98;69.34;100747.00;4823981;29;20030;-86
2021/12/20 00:20:18;;;;;;;15.43;9.63;;;;;;;6.20;69.29;100771.84;4808190;29;20038;-86
2021/12/20 00:22:44;;;;;;;13.93;9.65;;;;;;;6.07;69.30;100764.91;4824446;29;20090;-88
2021/12/20 00:25:10;;;;;;;14.50;9.52;;;;;;;5.64;70.09;100707.34;4813390;29;20034;-86
2021/12/20 00:27:36;;;;;;;17.25;9.77;;;;;;;5.77;70.31;100737.66;4796741;29;20030;-88
2021/12/20 00:30:04;;;;;;;14.20;9.02;;;;;;;5.57;69.72;100669.75;4833132;29;20030;-85
2021/12/20 00:32:30;;;;;;;14.55;9.25;;;;;;;5.44;69.72;100667.03;4837509;29;20049;-88
2021/12/20 00:34:55;;;;;;;15.73;8.70;;;;;;;5.94;70.03;100755.31;4807302;29;20034;-88
2021/12/20 00:40:21;;;;;;;14.23;9.75;;;;;;;5.80;69.84;100711.94;4824154;29;20102;-89
2021/12/20 00:42:48;;;;;;;14.05;9.68;;;;;;;5.69;69.93;100714.69;4810812;29;20607;-88
2021/12/20 00:45:15;;;;;;;14.63;9.60;;;;;;;5.89;69.68;100735.94;4818581;29;20513;-88
2021/12/20 00:47:42;;;;;;;15.20;9.27;;;;;;;5.80;70.03;100717.13;4825104;29;20135;-89
2021/12/20 00:50:10;;;;;;;15.25;9.88;;;;;;;5.74;69.95;100698.56;4826327;29;20034;-88
2021/12/20 00:52:36;;;;;;;13.68;8.85;;;;;;;5.79;69.83;100704.97;4861415;29;20516;-88
2021/12/20 00:55:02;;;;;;;14.98;9.27;;;;;;;6.03;69.96;100737.88;4849000;29;20049;-88
2021/12/20 00:57:28;;;;;;;;;;;;;;;6.00;69.88;100735.03;4842003;29;20037;-86
2021/12/20 00:59:54;;;;;;;14.38;9.27;;;;;;;5.79;69.81;100699.78;4847875;29;19922;-87
2021/12/20 01:02:22;;;;;;;15.48;9.50;;;;;;;5.86;69.68;100684.81;4866466;29;20036;-90
2021/12/20 01:04:47;;;;;;;14.77;9.77;;;;;;;5.89;69.83;100689.28;4839195;29;20116;-91
2021/12/20 01:07:28;;;;;;;14.60;9.30;;;;;;;5.89;69.94;100708.31;4833798;29;20116;-89
2021/12/20 01:09:57;;;;;;;17.23;9.38;;;;;;;5.88;70.22;100737.63;4834305;29;20033;-91
2021/12/20 01:12:26;;;;;;;13.27;8.98;;;;;;;5.71;69.70;100688.88;4834603;29;20031;-88
2021/12/20 01:15:00;;;;;;;14.65;9.70;;;;;;;5.85;70.33;100723.56;4830329;29;20034;-90
2021/12/20 01:17:47;;;;;;;16.35;10.10;;;;;;;5.88;70.40;100710.81;4831744;29;20039;-90
2021/12/20 01:20:17;;;;;;;14.50;9.50;;;;;;;5.51;70.17;100643.41;4856933;29;20025;-89
2021/12/20 01:22:44;;;;;;;15.52;9.55;;;;;;;5.81;70.87;100705.97;4857186;29;20432;-91
2021/12/20 01:25:17;;;;;;;13.32;9.05;;;;;;;5.87;70.25;100701.25;4828927;29;20034;-89
2021/12/20 01:27:43;;;;;;;16.42;9.93;;;;;;;5.95;69.83;100709.56;4820990;29;20037;-89
2021/12/20 01:30:11;;;;;;;14.77;9.52;;;;;;;6.03;70.26;100704.19;4836228;29;20029;-89
2021/12/20 01:32:40;;;;;;;14.40;9.27;;;;;;;5.63;70.19;100646.88;4817552;29;20048;-90
2021/12/20 01:35:10;;;;;;;14.60;9.43;;;;;;;5.65;70.01;100657.34;4825477;29;20094;-90
2021/12/20 01:37:37;;;;;;;15.57;9.80;;;;;;;5.64;70.39;100671.09;4838075;29;20056;-90
2021/12/20 01:40:13;;;;;;;16.65;9.85;;;;;;;5.87;70.41;100711.59;4818766;29;20120;-87
2021/12/20 01:42:41;;;;;;;16.00;9.35;;;;;;;5.74;70.50;100690.81;4826697;29;20048;-90
2021/12/20 01:45:22;;;;;;;15.40;10.00;;;;;;;5.67;70.28;100666.13;4836682;29;20426;-88
2021/12/20 01:47:52;;;;;;;17.02;10.00;;;;;;;5.66;70.55;100656.56;4828328;29;20119;-88
2021/12/20 01:50:22;;;;;;;15.45;9.10;;;;;;;5.63;70.22;100664.09;4824404;29;20059;-89
2021/12/20 01:52:48;;;;;;;18.35;9.88;;;;;;;5.92;70.01;100695.56;4842380;29;20589;-90
2021/12/20 01:55:20;;;;;;;15.60;9.45;;;;;;;5.84;70.41;100698.41;4821114;29;20117;-91
2021/12/20 01:57:48;;;;;;;15.27;9.40;;;;;;;5.88;70.75;100688.41;4837299;29;20033;-90
2021/12/20 02:00:21;;;;;;;15.60;9.80;;;;;;;5.83;70.24;100671.63;4829088;29;20487;-89
2021/12/20 02:03:01;;;;;;;15.15;9.57;;;;;;;5.72;70.18;100636.28;4828859;29;20034;-89
2021/12/20 02:05:55;;;;;;;14.52;9.60;;;;;;;5.61;70.29;100634.59;4860736;29;20056;-91
2021/12/20 02:08:28;;;;;;;14.65;9.68;;;;;;;5.78;70.84;100669.47;4848431;29;20101;-90
2021/12/20 02:10:59;;;;;;;15.80;10.10;;;;;;;5.47;70.57;100610.31;4829091;29;20469;-90
2021/12/20 02:13:28;;;;;;;19.48;10.95;;;;;;;5.46;70.64;100604.25;4837514;29;20037;-89
2021/12/20 02:15:58;;;;;;;17.20;10.23;;;;;;;5.74;70.29;100629.50;4828461;29;20112;-89
2021/12/20 02:18:24;;;;;;;16.33;10.43;;;;;;;5.48;70.32;100618.19;4836369;29;20113;-91
2021/12/20 02:20:50;;;;;;;17.02;10.10;;;;;;;5.55;70.23;100614.34;4825389;29;20125;-89
2021/12/20 02:23:16;;;;;;;16.60;10.07;;;;;;;5.35;70.68;100601.66;4833993;29;20069;-89
2021/12/20 02:25:42;;;;;;;16.75;10.07;;;;;;;5.39;70.89;100596.81;4836798;29;20029;-90
2021/12/20 02:28:14;;;;;;;17.83;10.52;;;;;;;5.75;70.68;100664.97;4851987;29;20477;-90
2021/12/20 02:38:37;;;;;;;19.00;10.73;;;;;;;5.48;71.09;100612.09;4851682;29;20044;-87
2021/12/20 02:41:15;;;;;;;18.50;11.02;;;;;;;5.72;70.58;100651.81;4842840;29;20057;-89
2021/12/20 02:43:52;;;;;;;17.13;9.95;;;;;;;5.42;70.66;100597.03;4849661;29;20060;-88
2021/12/20 02:46:45;;;;;;;17.15;10.30;;;;;;;5.72;70.85;100641.47;4849308;29;20028;-87
2021/12/20 02:49:17;;;;;;;17.58;10.80;;;;;;;5.48;70.79;100601.72;4836941;29;20029;-87
2021/12/20 02:51:44;;;;;;;17.67;10.32;;;;;;;5.80;70.61;100642.91;4834054;29;20040;-86
2021/12/20 02:54:11;;;;;;;18.38;10.40;;;;;;;5.46;70.50;100583.53;4829847;29;20418;-86
2021/12/20 02:56:37;;;;;;;18.88;10.05;;;;;;;5.56;70.61;100600.59;4821657;29;20030;-88
2021/12/20 02:59:03;;;;;;;;;;;;;;;5.74;70.77;100642.47;4838612;29;20565;-86
2021/12/20 03:01:29;;;;;;;17.55;11.00;;;;;;;5.41;70.85;100589.16;4852966;29;19912;-88
2021/12/20 03:03:56;;;;;;;17.80;10.50;;;;;;;5.69;70.95;100638.63;4816414;29;20029;-87
2021/12/20 03:06:27;;;;;;;18.55;10.80;;;;;;;5.79;70.29;100630.72;4819623;29;20049;-87
2021/12/20 03:08:55;;;;;;;21.48;11.80;;;;;;;5.50;70.42;100584.63;4844404;29;20108;-87
2021/12/20 03:11:24;;;;;;;17.85;10.93;;;;;;;5.76;70.27;100625.34;4855703;29;20518;-88
2021/12/20 03:13:54;;;;;;;18.08;10.68;;;;;;;5.74;70.77;100624.34;4837650;29;20028;-88
2021/12/20 03:16:20;;;;;;;18.60;11.00;;;;;;;5.77;70.63;100615.88;4848251;29;20038;-88
2021/12/20 03:18:45;;;;;;;18.67;11.18;;;;;;;5.70;70.59;100622.31;4844832;29;20101;-87
2021/12/20 03:21:11;;;;;;;19.48;11.00;;;;;;;5.64;70.59;100612.41;4837617;29;20094;-85
2021/12/20 03:23:37;;;;;;;18.00;10.50;;;;;;;5.62;70.85;100606.22;4852571;29;20061;-87
2021/12/20 03:26:03;;;;;;;18.08;10.57;;;;;;;5.61;70.65;100609.63;4844459;29;20042;-87
2021/12/20 03:28:29;;;;;;;16.25;10.00;;;;;;;5.17;70.75;100524.47;4829697;29;20037;-87
2021/12/20 03:30:54;;;;;;;18.15;10.63;;;;;;;5.34;70.58;100559.34;4829426;29;20056;-88
2021/12/20 03:33:20;;;;;;;16.95;10.32;;;;;;;5.35;70.60;100550.75;4861160;29;20037;-88
2021/12/20 03:35:47;;;;;;;15.98;9.73;;;;;;;5.48;70.59;100579.34;4839980;29;20523;-88
2021/12/20 03:38:13;;;;;;;17.27;10.50;;;;;;;5.51;70.48;100573.50;4836888;29;20065;-87
2021/12/20 03:40:39;;;;;;;18.33;10.35;;;;;;;5.44;70.42;100566.06;4828983;29;20065;-88
2021/12/20 03:43:06;;;;;;;18.38;10.68;;;;;;;5.68;70.61;100621.31;4868072;29;20076;-89
2021/12/20 03:45:36;;;;;;;17.73;10.18;;;;;;;5.62;71.11;100618.28;4795402;29;20051;-88
2021/12/20 03:48:01;;;;;;;18.08;10.45;;;;;;;5.68;70.58;100622.19;4831431;29;20472;-87
2021/12/20 03:50:27;;;;;;;18.48;10.30;;;;;;;5.68;71.02;100635.16;4824316;29;20030;-88
2021/12/20 03:52:53;;;;;;;17.13;10.10;;;;;;;5.51;70.70;100605.47;4810919;29;20037;-89
2021/12/20 03:55:19;;;;;;;17.83;10.68;;;;;;;5.72;71.05;100636.28;4818110;29;20476;-88
2021/12/20 03:57:46;;;;;;;15.50;9.60;;;;;;;5.74;70.94;100641.56;4820728;29;20041;-88
2021/12/20 04:00:19;;;;;;;17.58;10.60;;;;;;;5.55;70.77;100619.53;4815656;29;20034;-88
2021/12/20 04:02:46;;;;;;;18.17;10.18;;;;;;;5.70;70.69;100633.56;4826270;29;20038;-88
2021/12/20 04:05:15;;;;;;;16.52;10.18;;;;;;;5.56;70.56;100617.84;4823977;29;20117;-88
2021/12/20 04:07:41;;;;;;;16.67;10.68;;;;;;;5.71;70.54;100643.16;4821863;29;20522;-89
2021/12/20 04:10:07;;;;;;;17.35;9.82;;;;;;;5.75;70.68;100640.75;4807056;29;20034;-89
2021/12/20 04:12:32;;;;;;;15.52;9.80;;;;;;;5.64;70.80;100614.09;4860206;29;20086;-88
2021/12/20 04:14:59;;;;;;;16.55;9.85;;;;;;;5.57;70.39;100609.28;4829052;29;20518;-89
2021/12/20 04:17:26;;;;;;;17.60;10.23;;;;;;;5.39;70.87;100560.56;4803645;29;20038;-89
2021/12/20 04:19:51;;;;;;;17.92;9.88;;;;;;;5.59;70.54;100605.09;4824898;29;20068;-90
2021/12/20 04:22:19;;;;;;;16.00;9.80;;;;;;;5.47;70.92;100589.59;4823675;29;20058;-88
2021/12/20 04:24:48;;;;;;;16.73;9.80;;;;;;;5.51;70.89;100591.63;4813385;29;20477;-89
2021/12/20 04:27:27;;;;;;;16.67;9.75;;;;;;;5.69;70.90;100626.59;4807796;29;20042;-90
2021/12/20 04:29:58;;;;;;;17.85;10.35;;;;;;;5.64;70.25;100589.09;4805275;29;20056;-89
2021/12/20 04:32:24;;;;;;;19.00;10.20;;;;;;;5.43;70.87;100579.81;4808699;29;20038;-90
2021/12/20 04:34:53;;;;;;;17.00;9.93;;;;;;;5.66;70.35;100610.81;4808167;29;20099;-89
2021/12/20 04:37:19;;;;;;;14.25;9.15;;;;;;;5.48;70.61;100584.53;4821399;29;20034;-92
2021/12/20 04:39:45;;;;;;;15.57;9.38;;;;;;;5.40;70.68;100583.09;4808137;29;20540;-89
2021/12/20 04:42:12;;;;;;;17.73;9.38;;;;;;;5.63;70.49;100625.25;4817102;29;20041;-89
2021/12/20 04:44:38;;;;;;;16.58;9.43;;;;;;;5.59;70.61;100592.13;4834980;29;20088;-89
2021/12/20 04:47:03;;;;;;;16.73;10.07;;;;;;;5.31;70.69;100551.34;4837682;29;20468;-90
2021/12/20 04:49:31;;;;;;;18.02;10.10;;;;;;;5.65;70.73;100615.88;4828365;29;20030;-88
2021/12/20 04:51:57;;;;;;;15.15;9.48;;;;;;;5.15;70.63;100527.75;4835294;29;20033;-89
2021/12/20 04:54:25;;;;;;;;;;;;;;;5.77;70.92;100621.94;4838783;29;20045;-89
2021/12/20 04:56:51;;;;;;;14.60;8.90;;;;;;;5.41;70.92;100590.03;4828489;29;19912;-91
2021/12/20 04:59:19;;;;;;;15.52;9.27;;;;;;;5.59;70.52;100599.91;4828507;29;20042;-90
2021/12/20 05:01:45;;;;;;;15.77;9.57;;;;;;;5.38;70.79;100581.19;4824227;29;20069;-90
2021/12/20 05:04:11;;;;;;;16.13;9.90;;;;;;;5.38;70.88;100581.19;4843801;29;20060;-88
2021/12/20 05:06:41;;;;;;;17.58;9.85;;;;;;;5.37;70.47;100575.06;4843448;29;20620;-89
2021/12/20 05:09:06;;;;;;;15.90;9.52;;;;;;;5.34;71.20;100580.06;4832614;29;20033;-87
2021/12/20 05:11:36;;;;;;;14.80;9.75;;;;;;;5.45;71.11;100602.44;4817431;29;20123;-88
2021/12/20 05:14:02;;;;;;;16.00;9.57;;;;;;;5.72;70.69;100646.63;4851051;29;20037;-88
2021/12/20 05:16:28;;;;;;;15.50;9.43;;;;;;;5.66;70.91;100644.50;4835932;29;20037;-88
2021/12/20 05:18:54;;;;;;;15.68;9.80;;;;;;;5.64;71.39;100646.09;4826535;29;20038;-87
2021/12/20 05:21:20;;;;;;;15.20;9.18;;;;;;;5.45;71.25;100598.94;4847366;29;20170;-87
2021/12/20 05:23:45;;;;;;;15.00;9.48;;;;;;;5.07;70.89;100542.72;4840366;29;20111;-88
2021/12/20 05:26:11;;;;;;;15.55;9.40;;;;;;;5.25;70.67;100569.94;4859854;29;20531;-87
2021/12/20 05:28:37;;;;;;;15.70;9.40;;;;;;;5.39;70.83;100585.56;4836917;29;20025;-87
2021/12/20 05:31:03;;;;;;;16.17;9.23;;;;;;;5.56;70.67;100620.44;4845937;29;20060;-88
2021/12/20 05:33:29;;;;;;;16.27;9.00;;;;;;;5.08;70.61;100536.78;4847106;29;20112;-88
2021/12/20 05:35:54;;;;;;;14.52;9.05;;;;;;;5.64;70.96;100640.00;4832689;29;20034;-88
2021/12/20 05:38:20;;;;;;;15.75;9.23;;;;;;;5.30;71.07;100578.91;4838246;29;20034;-87
2021/12/20 05:40:46;;;;;;;15.15;9.18;;;;;;;5.28;71.00;100575.31;4842578;29;20061;-87
2021/12/20 05:43:12;;;;;;;13.10;8.75;;;;;;;5.30;70.73;100590.97;4842632;29;20036;-86
2021/12/20 05:45:38;;;;;;;14.90;9.18;;;;;;;5.46;70.86;100598.13;4849743;29;20144;-88
2021/12/20 05:48:04;;;;;;;15.30;9.50;;;;;;;5.32;70.90;100588.50;4831146;29;20041;-88
2021/12/20 05:50:33;;;;;;;14.43;8.63;;;;;;;5.29;70.83;100589.16;4831280;29;20118;-88
2021/12/20 05:52:59;;;;;;;16.45;9.10;;;;;;;5.46;70.71;100608.50;4842129;29;20037;-88
2021/12/20 05:55:24;;;;;;;14.30;8.90;;;;;;;5.22;71.13;100576.56;4839013;29;20098;-87
2021/12/20 05:57:51;;;;;;;16.50;9.95;;;;;;;5.06;71.05;100552.19;4838868;29;20037;-87
2021/12/20 06:00:20;;;;;;;15.93;9.68;;;;;;;5.02;70.99;100555.34;4857168;29;20036;-86
2021/12/20 06:02:49;;;;;;;14.32;8.85;;;;;;;5.64;70.95;100651.25;4824678;29;20036;-88
2021/12/20 06:05:16;;;;;;;14.68;9.40;;;;;;;5.65;71.14;100660.84;4830624;29;20392;-89
2021/12/20 06:07:42;;;;;;;;;;;;;;;5.65;71.16;100662.50;4822365;29;20026;-89
2021/12/20 06:10:13;;;;;;;13.63;8.82;;;;;;;4.86;71.21;100532.63;4836364;29;19911;-90
2021/12/20 06:12:39;;;;;;;14.95;8.80;;;;;;;5.63;71.24;100665.03;4842991;29;20112;-89
2021/12/20 06:15:06;;;;;;;14.68;8.98;;;;;;;5.30;70.84;100590.97;4825870;29;20040;-88
2021/12/20 06:17:32;;;;;;;14.65;9.52;;;;;;;5.15;70.87;100561.41;4842647;29;20132;-89
2021/12/20 06:19:58;;;;;;;15.88;9.40;;;;;;;5.16;71.05;100564.09;4834652;29;20049;-88
2021/12/20 06:22:24;;;;;;;15.10;8.85;;;;;;;5.22;71.07;100554.16;4847031;29;20037;-88
2021/12/20 06:24:50;;;;;;;16.40;9.18;;;;;;;5.06;71.00;100544.41;4834693;29;20121;-88
2021/12/20 06:27:17;;;;;;;14.18;9.27;;;;;;;5.68;71.25;100660.16;4843486;29;20116;-89
2021/12/20 06:29:42;;;;;;;14.80;9.07;;;;;;;5.49;70.98;100640.69;4830900;29;20519;-87
2021/12/20 06:32:08;;;;;;;14.80;9.07;;;;;;;5.59;70.94;100636.16;4828091;29;20072;-89
2021/12/20 06:34:35;;;;;;;14.20;8.88;;;;;;;5.36;71.08;100617.31;4842653;29;20039;-89
2021/12/20 06:37:02;;;;;;;14.65;8.90;;;;;;;5.50;71.20;100637.34;4829448;29;20049;-88
2021/12/20 06:39:30;;;;;;;14.82;8.90;;;;;;;5.50;70.88;100632.16;4828821;29;20616;-88
2021/12/20 06:41:56;;;;;;;14.25;8.63;;;;;;;5.64;71.01;100656.44;4833923;29;20038;-88
2021/12/20 06:44:22;;;;;;;13.88;8.40;;;;;;;4.94;71.33;100528.00;4833319;29;20046;-86
2021/12/20 06:46:48;;;;;;;14.50;8.85;;;;;;;5.46;70.91;100629.22;4820826;29;20034;-86
2021/12/20 06:49:16;;;;;;;14.77;9.30;;;;;;;5.65;71.08;100659.94;4858044;29;20033;-85
2021/12/20 06:51:43;;;;;;;14.68;9.07;;;;;;;5.17;70.56;100570.19;4845016;29;20054;-83
2021/12/20 06:54:12;;;;;;;14.15;8.77;;;;;;;5.26;70.90;100578.59;4827506;29;20132;-84
2021/12/20 06:56:38;;;;;;;13.68;8.32;;;;;;;5.15;70.84;100551.06;4824206;29;20090;-84
2021/12/20 06:59:04;;;;;;;17.00;10.18;;;;;;;5.06;70.97;100564.22;4861821;29;20030;-87
2021/12/20 07:01:30;;;;;;;13.82;8.65;;;;;;;5.62;71.39;100662.31;4844899;29;20132;-86
2021/12/20 07:03:56;;;;;;;16.30;9.27;;;;;;;5.37;70.66;100618.19;4821382;29;20098;-86
2021/12/20 07:06:22;;;;;;;15.40;9.23;;;;;;;5.84;70.44;100649.19;4815021;29;20033;-86
2021/12/20 07:08:47;;;;;;;16.00;9.50;;;;;;;5.28;70.56;100593.44;4819314;29;20034;-84
2021/12/20 07:11:13;;;;;;;13.65;9.02;;;;;;;5.54;71.14;100634.94;4812331;29;20046;-84
2021/12/20 07:13:39;;;;;;;14.77;8.35;;;;;;;5.64;70.84;100676.28;4836159;29;20040;-87
2021/12/20 07:16:06;;;;;;;14.95;9.32;;;;;;;5.46;70.97;100634.38;4822161;29;20034;-85
2021/12/20 07:18:32;;;;;;;15.13;9.10;;;;;;;5.19;70.88;100594.50;4818641;29;20042;-87
2021/12/20 07:21:02;;;;;;;16.25;9.77;;;;;;;5.22;70.76;100598.19;4801955;29;20042;-87
2021/12/20 07:23:28;;;;;;;15.00;9.40;;;;;;;5.59;70.98;100668.19;4813851;29;20038;-87
2021/12/20 07:26:08;;;;;;;15.68;9.63;;;;;;;5.27;71.35;100620.13;4817539;29;20037;-88
2021/12/20 07:28:34;;;;;;;15.63;9.00;;;;;;;5.62;71.05;100672.66;4821191;29;20036;-88
2021/12/20 07:31:06;;;;;;;15.38;9.30;;;;;;;5.48;70.85;100654.47;4827968;29;20034;-89
2021/12/20 07:33:33;;;;;;;14.98;9.25;;;;;;;5.50;71.25;100657.13;4818088;29;20033;-87
2021/12/20 07:35:59;;;;;;;16.40;9.32;;;;;;;5.59;70.97;100664.66;4854291;29;20513;-88
2021/12/20 07:38:35;;;;;;;15.23;9.40;;;;;;;5.26;70.97;100623.50;4809331;29;20038;-87
2021/12/20 07:41:02;;;;;;;15.40;9.52;;;;;;;5.50;71.24;100662.31;4806030;29;20049;-91
2021/12/20 07:43:27;;;;;;;16.05;9.77;;;;;;;5.28;71.23;100640.03;4827081;29;20025;-89
2021/12/20 07:45:55;;;;;;;16.45;9.07;;;;;;;5.49;70.77;100668.28;4832042;29;20480;-87
2021/12/20 07:48:23;;;;;;;14.98;9.18;;;;;;;5.57;71.01;100672.34;4850446;29;20551;-90
2021/12/20 07:50:53;;;;;;;16.02;9.43;;;;;;;5.63;71.36;100698.69;4830007;29;20131;-91
2021/12/20 07:53:22;;;;;;;15.60;9.80;;;;;;;5.34;71.27;100643.88;4820875;29;20037;-88
2021/12/20 07:55:50;;;;;;;16.83;9.10;;;;;;;5.44;71.10;100672.22;4828705;29;20513;-90
2021/12/20 07:58:16;;;;;;;14.43;9.10;;;;;;;5.28;71.19;100642.63;4829821;29;20117;-88
2021/12/20 08:00:41;;;;;;;15.60;9.10;;;;;;;5.40;71.21;100665.94;4864784;29;20129;-87
2021/12/20 08:03:13;;;;;;;15.50;9.63;;;;;;;5.26;71.01;100644.22;4827676;29;20082;-91
2021/12/20 08:05:40;;;;;;;15.77;9.65;;;;;;;5.49;71.38;100681.25;4828638;29;20117;-90
2021/12/20 08:08:16;;;;;;;15.20;9.38;;;;;;;5.20;71.05;100629.94;4819963;29;20042;-92
2021/12/20 08:11:07;;;;;;;15.65;9.32;;;;;;;5.64;71.24;100716.03;4850158;29;20113;-90
2021/12/20 08:13:48;;;;;;;13.82;8.65;;;;;;;5.35;71.60;100668.97;4844819;29;20030;-89
2021/12/20 08:16:19;;;;;;;15.98;9.30;;;;;;;5.50;71.33;100699.50;4853022;29;20545;-89
2021/12/20 08:19:03;;;;;;;14.77;9.18;;;;;;;5.24;71.42;100653.56;4857190;29;20122;-90
2021/12/20 08:21:29;;;;;;;13.60;8.68;;;;;;;5.55;71.24;100705.00;4835997;29;20125;-88
2021/12/20 08:23:55;;;;;;;14.02;9.15;;;;;;;5.43;71.26;100684.28;4853676;29;20083;-87
2021/12/20 08:26:21;;;;;;;15.27;8.98;;;;;;;5.46;71.29;100692.28;4848645;29;20040;-88
2021/12/20 08:28:47;;;;;;;14.45;8.98;;;;;;;5.52;71.54;100699.59;4831733;29;20025;-89
2021/12/20 08:31:14;;;;;;;13.40;8.93;;;;;;;5.42;71.32;100678.97;4825878;29;20523;-87
2021/12/20 08:33:40;;;;;;;14.80;8.90;;;;;;;5.46;71.44;100688.78;4841338;29;20038;-89
2021/12/20 08:36:12;;;;;;;15.20;9.20;;;;;;;5.34;71.66;100669.78;4847346;29;20034;-90
2021/12/20 08:38:39;;;;;;;13.45;8.95;;;;;;;5.65;71.76;100715.25;4819006;29;20137;-89
2021/12/20 08:41:11;;;;;;;13.50;8.80;;;;;;;5.48;71.75;100693.31;4827100;29;20132;-90
2021/12/20 08:43:37;;;;;;;14.82;9.38;;;;;;;5.42;71.51;100677.31;4817806;29;20033;-89
2021/12/20 08:46:03;;;;;;;14.32;9.20;;;;;;;5.48;71.82;100692.38;4851240;29;20043;-89
2021/12/20 08:48:32;;;;;;;13.13;8.57;;;;;;;5.63;71.64;100719.41;4827918;29;20465;-92
2021/12/20 08:51:10;;;;;;;14.23;8.73;;;;;;;5.47;71.69;100694.06;4844762;29;20565;-93
2021/12/20 08:53:43;;;;;;;14.90;9.07;;;;;;;5.52;71.26;100699.59;4825259;29;20125;-90
2021/12/20 08:59:34;;;;;;;14.52;9.18;;;;;;;5.38;71.50;100648.50;4854645;29;20044;-91
2021/12/20 09:02:41;;;;;;;13.32;8.48;;;;;;;5.90;71.21;100728.28;4831016;29;20469;-91
2021/12/20 09:05:36;;;;;;;14.57;9.25;;;;;;;5.76;71.48;100739.34;4827256;29;20038;-92
2021/12/20 09:08:10;;;;;;;14.82;8.82;;;;;;;5.49;71.35;100695.09;4819128;29;20041;-91
2021/12/20 09:11:12;;;;;;;15.30;9.00;;;;;;;5.75;71.41;100734.03;4828162;29;20423;-92
2021/12/20 09:17:03;;;;;;;14.05;8.48;;;;;;;5.53;71.49;100703.09;4853433;29;20068;-91
2021/12/20 09:19:57;;;;;;;14.90;9.43;;;;;;;5.79;71.06;100749.91;4830640;29;20481;-92
2021/12/20 09:22:49;;;;;;;14.05;8.73;;;;;;;5.57;71.59;100718.97;4833787;29;20034;-91
2021/12/20 09:25:27;;;;;;;12.27;8.40;;;;;;;5.55;71.44;100717.06;4838567;29;20044;-92
2021/12/20 09:27:55;;;;;;;14.07;8.82;;;;;;;5.69;71.69;100752.63;4820985;29;20063;-91
2021/12/20 09:30:23;;;;;;;12.80;8.85;;;;;;;5.34;71.86;100688.78;4836146;29;20037;-92
2021/12/20 09:32:55;;;;;;;13.05;8.77;;;;;;;5.50;71.31;100706.34;4826761;29;20037;-92
2021/12/20 09:35:21;;;;;;;13.63;8.60;;;;;;;5.31;71.56;100670.44;4820161;29;20033;-92
2021/12/20 09:37:51;;;;;;;14.02;9.00;;;;;;;5.35;71.60;100661.22;4830488;29;20059;-92
2021/12/20 09:40:31;;;;;;;13.85;8.55;;;;;;;5.45;71.65;100681.81;4850278;29;20120;-90
2021/12/20 09:43:09;;;;;;;14.02;8.70;;;;;;;5.71;71.50;100738.09;4829664;29;20034;-88
2021/12/20 09:45:42;;;;;;;13.40;8.27;;;;;;;5.51;71.71;100692.63;4823646;29;20053;-89
2021/12/20 09:48:11;;;;;;;13.43;8.57;;;;;;;5.82;71.45;100728.50;4835357;29;20037;-88
2021/12/20 09:50:41;;;;;;;14.32;8.98;;;;;;;5.80;71.29;100738.78;4834440;29;20107;-89
2021/12/20 09:53:19;;;;;;;13.40;8.77;;;;;;;5.61;71.38;100692.50;4852824;29;20092;-89
2021/12/20 09:55:50;;;;;;;12.32;8.10;;;;;;;5.48;72.02;100682.94;4822124;29;20033;-90
2021/12/20 09:58:19;;;;;;;13.32;8.35;;;;;;;5.46;71.92;100671.56;4818260;29;20427;-89
2021/12/20 10:00:47;;;;;;;15.95;8.90;;;;;;;5.79;71.50;100726.59;4836004;29;20037;-89
2021/12/20 10:03:29;;;;;;;16.02;8.32;;;;;;;5.58;71.64;100700.03;4850947;29;20025;-92
2021/12/20 10:06:00;;;;;;;12.40;8.07;;;;;;;5.68;70.94;100699.03;4827744;29;20126;-91
2021/12/20 10:08:50;;;;;;;14.00;9.13;;;;;;;5.35;71.28;100666.38;4826098;29;20041;-91
2021/12/20 10:11:21;;;;;;;14.50;8.55;;;;;;;5.77;71.82;100733.34;4826584;29;20076;-92
2021/12/20 10:13:48;;;;;;;24.60;9.80;;;;;;;5.84;71.80;100738.22;4848338;29;20029;-88
2021/12/20 10:16:20;;;;;;;21.92;9.52;;;;;;;6.19;70.36;100732.06;4829875;29;20033;-92
2021/12/20 10:18:53;;;;;;;15.95;9.15;;;;;;;5.85;70.81;100716.69;4830527;29;20034;-91
2021/12/20 10:21:34;;;;;;;15.95;8.27;;;;;;;5.29;71.47;100636.69;4831635;29;20039;-90
2021/12/20 10:23:59;;;;;;;15.45;8.55;;;;;;;5.69;71.43;100712.09;4834855;29;20029;-89
2021/12/20 10:26:53;;;;;;;17.77;8.90;;;;;;;5.87;71.62;100735.81;4835038;29;20042;-89
2021/12/20 10:29:20;;;;;;;16.27;8.55;;;;;;;5.61;71.19;100696.75;4824447;29;20036;-89
2021/12/20 10:31:56;;;;;;;13.98;8.32;;;;;;;5.60;71.85;100700.16;4838984;29;20056;-91
2021/12/20 10:38:23;;;;;;;13.73;8.63;;;;;;;5.82;71.54;100734.59;4876902;29;20514;-91
2021/12/20 10:41:50;;;;;;;14.38;9.10;;;;;;;5.96;71.06;100734.72;4831276;29;20037;-91
2021/12/20 10:44:18;;;;;;;15.13;8.18;;;;;;;5.70;71.65;100715.56;4854077;29;20062;-90
2021/12/20 10:47:01;;;;;;;14.90;9.20;;;;;;;5.63;70.67;100675.38;4841844;29;20098;-91
2021/12/20 10:49:49;;;;;;;15.15;8.55;;;;;;;5.83;71.40;100740.69;4837370;29;20026;-92
2021/12/20 10:52:34;;;;;;;14.52;8.90;;;;;;;5.82;71.62;100741.47;4830470;29;20030;-92
2021/12/20 10:55:07;;;;;;;24.88;9.95;;;;;;;5.87;71.23;100716.78;4838452;29;20029;-92
2021/12/20 10:57:55;;;;;;;21.02;9.13;;;;;;;5.84;71.59;100734.69;4845160;29;20081;-91
2021/12/20 11:00:44;;;;;;;17.60;9.30;;;;;;;5.95;71.34;100735.50;4822662;29;20028;-94
2021/12/20 11:03:35;;;;;;;18.33;9.35;;;;;;;5.85;71.40;100727.03;4813365;29;20042;-94
2021/12/20 11:06:40;;;;;;;16.10;9.07;;;;;;;5.94;71.39;100725.91;4842942;29;20109;-94
2021/12/20 11:09:22;;;;;;;15.32;8.98;;;;;;;5.85;71.10;100714.09;4854467;29;20029;-91
2021/12/20 11:11:55;;;;;;;20.58;9.40;;;;;;;5.63;71.28;100702.94;4828710;29;20034;-91
2021/12/20 11:14:42;;;;;;;22.10;9.77;;;;;;;6.03;71.29;100734.34;4848421;29;20404;-91
2021/12/20 11:17:14;;;;;;;15.38;9.45;;;;;;;5.96;71.65;100735.63;4819659;29;20082;-93
2021/12/20 11:19:41;;;;;;;16.38;9.65;;;;;;;5.72;70.82;100694.16;4854177;29;20029;-92
2021/12/20 11:22:30;;;;;;;16.90;9.32;;;;;;;6.00;71.49;100745.41;4840017;29;20030;-92
2021/12/20 11:25:06;;;;;;;14.80;9.45;;;;;;;5.92;71.33;100737.03;4827548;29;20137;-94
2021/12/20 11:27:38;;;;;;;14.80;9.10;;;;;;;5.88;71.49;100747.09;4840294;29;20036;-93
2021/12/20 11:30:10;;;;;;;15.00;8.95;;;;;;;5.85;71.05;100729.63;4838137;29;20026;-94
2021/12/20 11:32:46;;;;;;;15.52;9.15;;;;;;;5.92;71.64;100754.28;4854395;29;20515;-94
2021/12/20 11:35:32;;;;;;;16.33;9.17;;;;;;;5.63;71.36;100692.59;4844237;29;20030;-95
2021/12/20 11:38:03;;;;;;;16.70;9.02;;;;;;;6.01;70.82;100744.63;4821628;29;20178;-95
2021/12/20 11:40:33;;;;;;;17.20;9.38;;;;;;;5.85;70.98;100733.91;4827380;29;20222;-94
2021/12/20 11:42:59;;;;;;;15.25;9.00;;;;;;;5.85;71.06;100739.09;4832012;29;20038;-94
2021/12/20 11:45:25;;;;;;;14.93;8.82;;;;;;;5.79;71.23;100723.09;4812601;29;20107;-92
2021/12/20 11:48:10;;;;;;;13.98;9.02;;;;;;;5.79;71.33;100746.44;4810243;29;20050;-91
2021/12/20 11:50:38;;;;;;;16.90;9.52;;;;;;;5.92;71.27;100769.84;4813962;29;20087;-93
2021/12/20 11:53:40;;;;;;;15.27;9.00;;;;;;;5.90;71.41;100774.00;4828316;29;20435;-93
2021/12/20 11:56:37;;;;;;;15.68;8.65;;;;;;;5.99;71.29;100766.97;4821068;29;20120;-92
2021/12/20 11:59:11;;;;;;;16.08;9.10;;;;;;;5.70;71.56;100729.41;4831200;29;20031;-91
2021/12/20 12:02:17;;;;;;;17.27;8.75;;;;;;;6.02;71.38;100768.88;4824180;29;20589;-92